createdAt,value
2018-01-13T00:02:27.779Z,3.68
2018-01-13T00:12:04.338Z,3.68
2018-01-13T00:21:40.914Z,3.68
2018-01-13T00:31:18.363Z,3.68
2018-01-13T00:40:56.774Z,3.68
2018-01-13T00:50:25.607Z,3.68
2018-01-13T01:00:02.138Z,3.68
2018-01-13T01:09:38.870Z,3.58
2018-01-13T01:19:15.575Z,3.58
2018-01-13T01:28:52.120Z,3.58
2018-01-13T01:38:32.551Z,3.48
2018-01-13T01:48:05.810Z,3.48
2018-01-13T01:57:34.294Z,3.48
2018-01-13T02:07:11.081Z,3.48
2018-01-13T02:16:47.843Z,3.48
2018-01-13T02:26:24.822Z,3.39
2018-01-13T02:36:01.787Z,3.19
2018-01-13T02:45:42.282Z,3.09
2018-01-13T02:55:11.553Z,3.09
2018-01-13T03:04:48.118Z,2.99
2018-01-13T03:14:25.055Z,3.00
2018-01-13T03:24:01.722Z,3.00
2018-01-13T03:33:38.670Z,2.90
2018-01-13T03:43:15.621Z,2.90
2018-01-13T03:52:52.253Z,2.70
2018-01-13T04:02:28.661Z,2.70
2018-01-13T04:12:09.220Z,2.70
2018-01-13T04:21:38.460Z,2.60
2018-01-13T04:31:18.958Z,2.60
2018-01-13T04:40:47.863Z,2.51
2018-01-13T04:50:24.868Z,2.60
2018-01-13T05:00:01.570Z,2.60
2018-01-13T05:09:42.464Z,2.51
2018-01-13T05:19:11.759Z,2.60
2018-01-13T05:28:48.566Z,2.41
2018-01-13T05:38:25.162Z,2.51
2018-01-13T05:48:01.467Z,2.41
2018-01-13T05:57:38.440Z,2.41
2018-01-13T06:07:19.279Z,2.41
2018-01-13T06:16:48.714Z,2.41
2018-01-13T06:26:25.643Z,2.41
2018-01-13T06:36:02.761Z,2.31
2018-01-13T06:45:39.959Z,2.41
2018-01-13T06:55:15.944Z,2.21
2018-01-13T07:04:55.406Z,2.31
2018-01-13T07:14:32.007Z,2.21
2018-01-13T07:24:09.286Z,2.21
2018-01-13T07:33:44.592Z,2.41
2018-01-13T07:43:24.877Z,2.21
2018-01-13T07:53:01.523Z,2.41
2018-01-13T08:02:42.669Z,2.31
2018-01-13T08:12:11.274Z,2.41
2018-01-13T08:21:54.349Z,2.41
2018-01-13T08:31:24.981Z,2.41
2018-01-13T08:40:54.131Z,2.51
2018-01-13T08:50:34.782Z,2.41
2018-01-13T09:00:07.527Z,2.41
2018-01-13T09:09:40.814Z,2.60
2018-01-13T09:19:14.075Z,2.60
2018-01-13T09:28:47.415Z,2.70
2018-01-13T09:38:20.059Z,2.60
2018-01-13T09:47:48.773Z,2.60
2018-01-13T09:57:29.141Z,2.51
2018-01-13T10:06:57.678Z,2.41
2018-01-13T10:16:38.107Z,2.41
2018-01-13T10:26:07.536Z,2.41
2018-01-13T10:35:43.853Z,2.51
2018-01-13T10:45:20.643Z,2.70
2018-01-13T10:55:01.594Z,2.90
2018-01-13T11:04:34.422Z,2.90
2018-01-13T11:14:07.050Z,2.90
2018-01-13T11:23:39.323Z,2.80
2018-01-13T11:33:07.568Z,2.60
2018-01-13T11:42:44.105Z,2.60
2018-01-13T11:52:24.165Z,2.60
2018-01-13T12:01:52.710Z,2.60
2018-01-13T12:11:29.144Z,2.60
2018-01-13T12:21:05.598Z,2.70
2018-01-13T12:30:41.884Z,2.60
2018-01-13T12:40:18.291Z,2.41
2018-01-13T12:49:54.783Z,2.60
2018-01-13T12:59:31.201Z,2.60
2018-01-13T13:09:07.627Z,2.60
2018-01-13T13:18:47.427Z,2.51
2018-01-13T13:28:16.914Z,2.41
2018-01-13T13:37:57.908Z,2.51
2018-01-13T13:47:26.997Z,2.60
2018-01-13T13:57:03.265Z,2.41
2018-01-13T14:06:39.495Z,2.41
2018-01-13T14:16:19.968Z,2.31
2018-01-13T14:25:48.397Z,2.31
2018-01-13T14:35:28.493Z,2.31
2018-01-13T14:45:00.868Z,2.31
2018-01-13T14:54:29.254Z,2.31
2018-01-13T15:04:06.267Z,2.21
2018-01-13T15:13:43.230Z,2.31
2018-01-13T15:23:19.668Z,2.21
2018-01-13T15:32:55.988Z,2.21
2018-01-13T15:42:32.378Z,2.12
2018-01-13T15:52:08.630Z,2.02
2018-01-13T16:01:45.535Z,1.92
2018-01-13T16:11:22.244Z,1.82
2018-01-13T16:20:58.357Z,1.72
2018-01-13T16:30:38.942Z,1.82
2018-01-13T16:40:11.689Z,1.82
2018-01-13T16:49:40.432Z,1.92
2018-01-13T16:59:20.977Z,1.92
2018-01-13T17:08:53.951Z,1.82
2018-01-13T17:18:22.283Z,1.82
2018-01-13T17:28:05.723Z,1.72
2018-01-13T17:37:31.576Z,1.72
2018-01-13T17:47:11.602Z,1.72
2018-01-13T17:56:40.527Z,1.62
2018-01-13T18:06:17.044Z,1.62
2018-01-13T18:15:57.181Z,1.72
2018-01-13T18:25:25.102Z,1.63
2018-01-13T18:35:01.873Z,1.63
2018-01-13T18:44:38.451Z,1.63
2018-01-13T18:54:15.272Z,1.53
2018-01-13T19:03:52.222Z,1.53
2018-01-13T19:13:28.732Z,1.43
2018-01-13T19:23:05.276Z,1.43
2018-01-13T19:32:41.150Z,1.33
2018-01-13T19:42:16.875Z,1.14
2018-01-13T19:51:53.457Z,1.04
2018-01-13T20:01:29.901Z,0.94
2018-01-13T20:11:10.511Z,1.14
2018-01-13T20:20:39.004Z,1.14
2018-01-13T20:30:15.720Z,1.04
2018-01-13T20:39:52.755Z,1.04
2018-01-13T20:49:29.194Z,1.04
2018-01-13T20:59:05.713Z,0.84
2018-01-13T21:08:42.559Z,0.84
2018-01-13T21:18:18.934Z,0.84
2018-01-13T21:28:02.193Z,0.75
2018-01-13T21:37:29.937Z,0.75
2018-01-13T21:47:04.877Z,0.75
2018-01-13T21:56:41.489Z,0.75
2018-01-13T22:06:18.169Z,0.75
2018-01-13T22:15:54.897Z,0.65
2018-01-13T22:25:35.774Z,0.65
2018-01-13T22:35:04.157Z,0.65
2018-01-13T22:44:40.895Z,0.65
2018-01-13T22:54:17.868Z,0.55
2018-01-13T23:03:53.764Z,0.55
2018-01-13T23:13:30.412Z,0.65
2018-01-13T23:23:07.257Z,0.55
2018-01-13T23:32:43.653Z,0.55
2018-01-13T23:42:20.268Z,0.45
2018-01-13T23:51:56.894Z,0.55
